Time;durP1;ratioP1;P1;durP2;ratioP2;P2;SDS_P1;SDS_P2;PMS_P1;PMS_P2;Temp;Humidity;BMP_temperature;BMP_pressure;BME280_temperature;BME280_humidity;BME280_pressure;Samples;Min_cycle;Max_cycle;Signal;HPM_P1;HPM_P2
2023/03/24 00:00:19;;;;;;;5.90;1.60;;;;;;;11.22;100.00;99798.06;4936262;28;20129;-76
2023/03/24 00:02:45;;;;;;;2.30;1.45;;;;;;;11.24;100.00;99796.06;4953931;28;20039;-77
2023/03/24 00:05:15;;;;;;;4.97;1.75;;;;;;;11.26;100.00;99794.91;4944110;28;20101;-76
2023/03/24 00:07:41;;;;;;;3.72;1.45;;;;;;;11.30;100.00;99787.53;4941824;28;20042;-76
2023/03/24 00:10:09;;;;;;;4.40;1.60;;;;;;;11.31;100.00;99786.56;4937469;28;20052;-76
2023/03/24 00:12:37;;;;;;;2.97;1.65;;;;;;;11.33;100.00;99784.59;4953333;28;20043;-75
2023/03/24 00:15:06;;;;;;;4.75;1.70;;;;;;;11.24;100.00;99776.09;4938863;28;20050;-75
2023/03/24 00:17:34;;;;;;;3.30;1.50;;;;;;;11.26;100.00;99775.94;4953400;28;20035;-76
2023/03/24 00:20:06;;;;;;;2.95;1.38;;;;;;;11.37;100.00;99772.03;5016644;28;20459;-74
2023/03/24 00:22:31;;;;;;;3.70;1.50;;;;;;;11.38;100.00;99760.69;4940877;28;20038;-76
2023/03/24 00:24:57;;;;;;;3.22;1.50;;;;;;;11.40;100.00;99756.09;4944076;28;20039;-76
2023/03/24 00:27:22;;;;;;;1.75;1.40;;;;;;;11.40;100.00;99741.34;4944677;28;20035;-76
2023/03/24 00:29:48;;;;;;;4.95;1.80;;;;;;;11.38;100.00;99742.53;4930562;28;20040;-75
2023/03/24 00:32:13;;;;;;;7.05;1.67;;;;;;;11.35;100.00;99743.69;4984048;28;20031;-75
2023/03/24 00:34:39;;;;;;;3.83;1.88;;;;;;;11.30;100.00;99739.06;4929489;28;20028;-76
2023/03/24 00:37:05;;;;;;;2.85;1.50;;;;;;;11.20;100.00;99742.94;4939177;28;20035;-75
2023/03/24 00:39:31;;;;;;;3.92;1.67;;;;;;;11.18;100.00;99739.72;4943655;28;20116;-77
2023/03/24 00:41:57;;;;;;;1.95;1.42;;;;;;;11.25;100.00;99732.81;4936169;28;20038;-76
2023/03/24 00:44:23;;;;;;;3.58;1.73;;;;;;;11.28;100.00;99738.44;4932269;28;20044;-76
2023/03/24 00:46:56;;;;;;;5.72;1.90;;;;;;;11.23;100.00;99733.00;4944759;28;20034;-75
2023/03/24 00:49:41;;;;;;;;;;;;;;;11.30;100.00;99725.25;4946018;28;20040;-76
2023/03/24 00:52:19;;;;;;;3.65;1.60;;;;;;;11.32;100.00;99731.09;4940390;28;20428;-76
2023/03/24 00:54:46;;;;;;;5.32;1.58;;;;;;;11.23;100.00;99717.44;4927716;28;20047;-76
2023/03/24 00:57:13;;;;;;;3.10;1.50;;;;;;;11.24;100.00;99726.81;4944865;28;20031;-75
2023/03/24 00:59:47;;;;;;;6.30;1.77;;;;;;;11.31;100.00;99716.50;4938883;28;20039;-75
2023/03/24 01:02:13;;;;;;;4.10;1.90;;;;;;;11.35;100.00;99717.72;4944816;28;20485;-75
2023/03/24 01:04:40;;;;;;;4.47;1.58;;;;;;;11.37;100.00;99715.75;4945701;28;20106;-75
2023/03/24 01:07:09;;;;;;;2.78;1.70;;;;;;;11.47;100.00;99725.78;4947319;28;21463;-76
2023/03/24 01:09:35;;;;;;;6.93;2.28;;;;;;;11.45;100.00;99709.59;4943756;28;20497;-76
2023/03/24 01:12:04;;;;;;;4.57;1.60;;;;;;;11.40;100.00;99712.00;4960783;28;20055;-76
2023/03/24 01:14:32;;;;;;;3.33;1.90;;;;;;;11.46;100.00;99704.25;4931728;28;20456;-76
2023/03/24 01:16:58;;;;;;;3.00;2.08;;;;;;;11.44;100.00;99687.25;4926438;28;20038;-77
2023/03/24 01:19:24;;;;;;;4.30;1.90;;;;;;;11.42;100.00;99690.03;4950783;28;20453;-76
2023/03/24 01:21:53;;;;;;;5.65;2.05;;;;;;;11.40;100.00;99691.22;4946199;28;20055;-77
2023/03/24 01:24:24;;;;;;;3.63;2.35;;;;;;;11.43;100.00;99681.28;5008705;28;20041;-77
2023/03/24 01:26:50;;;;;;;4.35;2.03;;;;;;;11.44;100.00;99685.44;4927252;28;20035;-76
2023/03/24 01:29:15;;;;;;;3.50;2.08;;;;;;;11.50;100.00;99674.31;4939454;28;20571;-77
2023/03/24 01:31:41;;;;;;;4.32;1.90;;;;;;;11.48;100.00;99671.09;4927211;28;20393;-77
2023/03/24 01:34:06;;;;;;;2.42;1.88;;;;;;;11.40;100.00;99673.84;4937227;28;20051;-76
2023/03/24 01:36:32;;;;;;;4.35;2.05;;;;;;;11.39;100.00;99672.22;4943533;28;20031;-76
2023/03/24 01:38:59;;;;;;;2.92;1.90;;;;;;;11.50;100.00;99661.31;5021092;28;20088;-76
2023/03/24 01:41:30;;;;;;;3.70;2.13;;;;;;;11.60;100.00;99657.59;5029494;28;20021;-76
2023/03/24 01:43:56;;;;;;;3.47;2.35;;;;;;;11.51;100.00;99654.38;4943745;28;20112;-77
2023/03/24 01:46:22;;;;;;;3.65;2.20;;;;;;;11.46;100.00;99641.13;4944332;28;20036;-77
2023/03/24 01:48:57;;;;;;;2.88;2.00;;;;;;;11.37;100.00;99637.88;4939029;28;20039;-76
2023/03/24 01:51:33;;;;;;;3.45;2.10;;;;;;;11.45;100.00;99632.56;4947831;28;20035;-77
2023/03/24 01:54:03;;;;;;;3.63;2.33;;;;;;;11.43;100.00;99624.16;5009924;28;20031;-77
2023/03/24 01:56:35;;;;;;;4.05;2.22;;;;;;;11.38;100.00;99618.72;5032069;28;20497;-76
2023/03/24 01:59:07;;;;;;;4.85;2.35;;;;;;;11.43;100.00;99612.97;4940492;28;20032;-76
2023/03/24 02:01:41;;;;;;;7.05;2.60;;;;;;;11.54;100.00;99603.84;4947247;28;20059;-76
2023/03/24 02:04:37;;;;;;;5.13;2.35;;;;;;;11.48;100.00;99595.03;4939460;28;20722;-75
2023/03/24 02:07:17;;;;;;;3.70;2.05;;;;;;;11.49;100.00;99594.06;4956461;28;20461;-76
2023/03/24 02:09:43;;;;;;;5.80;2.22;;;;;;;11.54;100.00;99593.47;4951119;28;20042;-76
2023/03/24 02:12:09;;;;;;;3.15;2.10;;;;;;;11.48;100.00;99584.66;4947876;28;20035;-76
2023/03/24 02:14:35;;;;;;;3.58;2.20;;;;;;;11.58;100.00;99586.88;4954953;28;20046;-76
2023/03/24 02:17:12;;;;;;;3.92;2.33;;;;;;;11.50;100.00;99585.25;4928121;28;20042;-76
2023/03/24 02:20:10;;;;;;;5.85;2.60;;;;;;;11.56;100.00;99581.09;4939630;28;20066;-76
2023/03/24 02:22:50;;;;;;;8.38;2.53;;;;;;;11.62;100.00;99573.34;4953402;28;20035;-76
2023/03/24 02:25:28;;;;;;;5.45;2.55;;;;;;;11.64;100.00;99578.31;4955121;28;20465;-76
2023/03/24 02:28:18;;;;;;;6.57;2.30;;;;;;;11.72;100.00;99574.78;4956477;28;20066;-76
2023/03/24 02:30:53;;;;;;;4.50;2.50;;;;;;;11.82;100.00;99563.03;4925873;28;20077;-76
2023/03/24 02:33:18;;;;;;;3.97;2.10;;;;;;;11.84;100.00;99563.63;4944889;28;20060;-76
2023/03/24 02:36:06;;;;;;;3.70;2.17;;;;;;;11.81;100.00;99569.22;4937394;28;20031;-76
2023/03/24 02:39:00;;;;;;;4.75;2.47;;;;;;;11.88;100.00;99559.69;5012199;28;20027;-76
2023/03/24 02:41:46;;;;;;;4.95;2.42;;;;;;;12.05;100.00;99559.34;4958969;28;20032;-76
2023/03/24 02:44:33;;;;;;;3.40;2.20;;;;;;;12.13;100.00;99555.75;4958760;28;20063;-76
2023/03/24 02:47:22;;;;;;;7.30;2.30;;;;;;;12.08;100.00;99553.75;5011327;28;20038;-76
2023/03/24 02:50:20;;;;;;;3.72;2.10;;;;;;;12.24;100.00;99545.63;4944620;28;20054;-76
2023/03/24 02:52:53;;;;;;;5.00;2.30;;;;;;;12.23;100.00;99554.41;4951487;28;20050;-77
2023/03/24 02:55:48;;;;;;;4.80;2.33;;;;;;;12.22;100.00;99544.19;4951683;28;20039;-76
2023/03/24 02:58:22;;;;;;;4.70;2.30;;;;;;;12.19;100.00;99548.00;4939030;28;20131;-76
2023/03/24 03:01:02;;;;;;;3.67;2.20;;;;;;;12.27;100.00;99534.81;4951359;28;20075;-76
2023/03/24 03:03:57;;;;;;;6.07;2.78;;;;;;;12.47;100.00;99554.84;4943616;28;20046;-77
2023/03/24 03:06:32;;;;;;;4.07;2.30;;;;;;;12.43;100.00;99538.84;4966706;28;20452;-76
2023/03/24 03:09:06;;;;;;;3.97;1.85;;;;;;;12.46;100.00;99543.63;4943348;28;20039;-76
2023/03/24 03:11:32;;;;;;;2.70;1.98;;;;;;;12.50;100.00;99544.03;4933429;28;20032;-76
2023/03/24 03:14:14;;;;;;;4.10;1.65;;;;;;;12.49;100.00;99544.22;5022494;28;20032;-76
2023/03/24 03:16:45;;;;;;;3.97;2.20;;;;;;;12.57;100.00;99549.25;4971276;28;20043;-77
2023/03/24 03:19:19;;;;;;;6.93;1.90;;;;;;;12.50;100.00;99541.44;4958702;28;20035;-75
2023/03/24 03:21:49;;;;;;;4.75;2.22;;;;;;;12.58;100.00;99538.66;4955758;28;20033;-76
2023/03/24 03:24:25;;;;;;;3.70;2.08;;;;;;;12.69;100.00;99539.03;4959229;28;20067;-77
2023/03/24 03:27:01;;;;;;;2.47;1.75;;;;;;;12.53;100.00;99537.66;4930914;28;20051;-76
2023/03/24 03:29:32;;;;;;;3.85;2.10;;;;;;;12.56;100.00;99539.84;4958018;28;20122;-77
2023/03/24 03:32:06;;;;;;;3.70;1.80;;;;;;;12.54;100.00;99536.63;4933783;28;20115;-76
2023/03/24 03:35:05;;;;;;;3.95;2.10;;;;;;;12.55;100.00;99538.25;5020199;28;20060;-77
2023/03/24 03:37:49;;;;;;;4.43;1.90;;;;;;;12.50;100.00;99548.44;4925664;28;20112;-77
2023/03/24 03:40:21;;;;;;;2.88;1.92;;;;;;;12.51;100.00;99553.44;4944475;28;20574;-76
2023/03/24 03:42:52;;;;;;;3.30;1.98;;;;;;;12.57;100.00;99544.06;4947390;28;20121;-74
2023/03/24 03:45:18;;;;;;;3.42;1.80;;;;;;;12.56;100.00;99545.03;4936210;28;20499;-78
2023/03/24 03:47:44;;;;;;;3.28;2.00;;;;;;;12.55;100.00;99548.66;4947987;28;20054;-76
2023/03/24 03:50:10;;;;;;;3.47;1.80;;;;;;;12.47;100.00;99557.44;4945238;28;20039;-77
2023/03/24 03:52:38;;;;;;;11.68;2.30;;;;;;;12.46;100.00;99563.63;4937554;28;20088;-75
2023/03/24 03:55:05;;;;;;;4.07;1.90;;;;;;;12.42;100.00;99572.84;4941937;28;20063;-76
2023/03/24 03:57:32;;;;;;;5.25;2.70;;;;;;;12.30;100.00;99574.41;4969947;28;20471;-76
2023/03/24 04:00:18;;;;;;;6.05;2.65;;;;;;;12.15;100.00;99598.75;4948810;28;22695;-76
2023/03/24 04:03:17;;;;;;;4.57;2.47;;;;;;;12.09;100.00;99604.72;4935631;28;20405;-75
2023/03/24 04:06:00;;;;;;;4.00;2.53;;;;;;;12.09;100.00;99602.13;4992598;28;20043;-75
2023/03/24 04:08:50;;;;;;;2.92;2.00;;;;;;;11.97;100.00;99601.88;4918179;28;20035;-76
2023/03/24 04:11:45;;;;;;;5.28;2.70;;;;;;;11.89;100.00;99615.03;4950907;28;20457;-76
2023/03/24 04:14:54;;;;;;;5.65;2.45;;;;;;;11.81;100.00;99623.78;4943445;28;20088;-76
2023/03/24 04:17:50;;;;;;;4.72;2.67;;;;;;;11.79;100.00;99630.13;4960053;28;20113;-75
2023/03/24 04:20:45;;;;;;;3.55;1.88;;;;;;;11.64;100.00;99625.88;4941357;28;20035;-76
2023/03/24 04:23:25;;;;;;;3.65;2.05;;;;;;;11.57;100.00;99632.03;4936403;28;20035;-75
2023/03/24 04:26:15;;;;;;;3.58;2.22;;;;;;;11.56;100.00;99644.19;5020723;28;20972;-76
2023/03/24 04:29:02;;;;;;;4.72;2.20;;;;;;;11.48;100.00;99649.53;4963424;28;20118;-76
2023/03/24 04:31:40;;;;;;;5.00;2.28;;;;;;;11.53;100.00;99641.16;4941607;28;20034;-76
2023/03/24 04:34:24;;;;;;;4.97;2.03;;;;;;;11.44;100.00;99666.50;4954082;28;20042;-77
2023/03/24 04:36:55;;;;;;;2.90;1.98;;;;;;;11.41;100.00;99667.66;4944243;28;20035;-76
2023/03/24 04:39:45;;;;;;;4.40;2.30;;;;;;;11.48;100.00;99663.31;4952613;28;20046;-75
2023/03/24 04:42:26;;;;;;;7.20;1.95;;;;;;;11.42;100.00;99674.47;4946043;28;20058;-76
2023/03/24 04:44:52;;;;;;;4.80;1.77;;;;;;;11.42;100.00;99686.66;4927667;28;20036;-77
2023/03/24 04:47:23;;;;;;;5.30;1.95;;;;;;;11.36;100.00;99692.56;4938935;28;20042;-75
2023/03/24 04:50:08;;;;;;;5.78;1.70;;;;;;;11.42;100.00;99694.44;4929507;28;20035;-76
2023/03/24 04:52:34;;;;;;;4.47;1.70;;;;;;;11.36;100.00;99700.34;4936940;28;20038;-76
2023/03/24 04:55:10;;;;;;;2.78;1.50;;;;;;;11.35;100.00;99716.94;4935344;28;20077;-76
2023/03/24 04:57:36;;;;;;;5.22;1.50;;;;;;;11.28;100.00;99725.47;4939914;28;20036;-75
2023/03/24 05:00:07;;;;;;;6.05;1.35;;;;;;;11.21;100.00;99734.19;4943325;28;20039;-75
2023/03/24 05:02:33;;;;;;;4.55;2.08;;;;;;;11.16;100.00;99731.34;4954064;28;20031;-74
2023/03/24 05:05:05;;;;;;;2.92;1.30;;;;;;;11.03;100.00;99735.41;4940701;28;20046;-76
2023/03/24 05:07:44;;;;;;;2.83;0.82;;;;;;;10.98;100.00;99750.72;4972330;28;20041;-76
2023/03/24 05:10:12;;;;;;;4.00;0.98;;;;;;;10.87;100.00;99759.78;4934878;28;20039;-75
2023/03/24 05:12:43;;;;;;;5.53;1.05;;;;;;;10.78;99.91;99760.88;4938348;28;20541;-76
2023/03/24 05:15:27;;;;;;;6.47;0.90;;;;;;;10.68;99.03;99762.94;4938099;28;20038;-75
2023/03/24 05:18:10;;;;;;;3.78;1.33;;;;;;;10.60;98.04;99782.00;4934835;28;20078;-75
2023/03/24 05:20:36;;;;;;;3.92;0.93;;;;;;;10.49;98.27;99775.50;4992308;28;20525;-75
2023/03/24 05:23:11;;;;;;;4.47;0.90;;;;;;;10.49;98.55;99785.03;5006426;28;20550;-75
2023/03/24 05:25:40;;;;;;;5.13;0.80;;;;;;;10.44;98.84;99795.97;4942940;28;20050;-76
2023/03/24 05:28:05;;;;;;;3.90;1.00;;;;;;;10.36;99.00;99806.44;4962707;28;20043;-75
2023/03/24 05:30:31;;;;;;;4.97;1.00;;;;;;;10.35;99.21;99814.38;4941388;28;20031;-75
2023/03/24 05:33:07;;;;;;;2.22;0.60;;;;;;;10.25;98.65;99825.78;4979748;28;20176;-78
2023/03/24 05:35:33;;;;;;;5.47;1.13;;;;;;;10.16;98.14;99815.66;4950817;28;20036;-76
2023/03/24 05:37:59;;;;;;;5.00;1.00;;;;;;;10.13;98.01;99822.00;4928902;28;20035;-75
2023/03/24 05:40:25;;;;;;;1.90;0.80;;;;;;;9.99;99.31;99828.75;4954258;28;20509;-76
2023/03/24 05:42:55;;;;;;;8.18;1.17;;;;;;;10.04;98.91;99846.34;4996779;28;20042;-75
2023/03/24 05:45:24;;;;;;;6.35;1.10;;;;;;;9.97;98.79;99854.03;5012917;28;20048;-75
2023/03/24 05:47:50;;;;;;;5.30;1.55;;;;;;;10.00;98.58;99855.47;5025206;28;20811;-75
2023/03/24 05:50:22;;;;;;;10.63;1.70;;;;;;;9.92;98.53;99858.91;4939955;28;20031;-76
2023/03/24 05:52:48;;;;;;;7.65;1.70;;;;;;;9.98;97.38;99852.25;4929828;28;20055;-76
2023/03/24 05:55:34;;;;;;;9.18;1.25;;;;;;;9.87;98.13;99869.00;4940716;28;20035;-75
2023/03/24 05:58:11;;;;;;;8.95;1.38;;;;;;;9.89;97.69;99874.81;4980439;28;20877;-75
2023/03/24 06:00:47;;;;;;;7.15;1.30;;;;;;;9.80;96.54;99871.47;4933131;28;20044;-73
2023/03/24 06:03:21;;;;;;;8.27;1.10;;;;;;;9.77;95.88;99877.00;4934322;28;20038;-75
2023/03/24 06:05:58;;;;;;;7.78;1.20;;;;;;;9.84;95.21;99871.94;4943826;28;20057;-75
2023/03/24 06:08:27;;;;;;;10.30;1.30;;;;;;;9.80;95.15;99884.44;4954628;28;20521;-76
2023/03/24 06:10:59;;;;;;;5.15;1.13;;;;;;;9.70;94.29;99878.66;4943782;28;20032;-76
2023/03/24 06:13:24;;;;;;;13.13;2.47;;;;;;;9.77;93.63;99877.00;4957682;28;20024;-76
2023/03/24 06:15:53;;;;;;;10.82;1.67;;;;;;;9.68;92.60;99878.03;4954078;28;20050;-76
2023/03/24 06:18:39;;;;;;;7.75;1.55;;;;;;;9.68;92.54;99885.78;5021637;28;20569;-75
2023/03/24 06:21:12;;;;;;;10.80;1.33;;;;;;;9.66;92.89;99892.94;4996011;28;20047;-76
2023/03/24 06:23:39;;;;;;;8.15;1.20;;;;;;;9.63;92.43;99903.66;4937549;28;20042;-77
2023/03/24 06:26:11;;;;;;;5.80;1.20;;;;;;;9.55;92.15;99907.88;5004753;28;20245;-77
2023/03/24 06:28:50;;;;;;;7.43;1.23;;;;;;;9.60;92.27;99907.38;4970177;28;20082;-77
2023/03/24 06:31:19;;;;;;;8.82;1.73;;;;;;;9.51;92.83;99916.97;4976833;28;20035;-77
2023/03/24 06:33:46;;;;;;;6.82;1.60;;;;;;;9.54;93.38;99910.66;4955048;28;20043;-76
2023/03/24 06:36:13;;;;;;;12.15;1.45;;;;;;;9.58;92.49;99914.50;5014922;28;20038;-77
2023/03/24 06:38:41;;;;;;;8.88;2.63;;;;;;;9.53;92.47;99921.97;4946958;28;20114;-76
2023/03/24 06:41:07;;;;;;;8.10;1.10;;;;;;;9.52;92.60;99910.00;5033642;28;20514;-76
2023/03/24 06:43:34;;;;;;;10.38;2.40;;;;;;;9.68;92.75;99915.09;4955772;28;20031;-77
2023/03/24 06:46:00;;;;;;;8.32;1.25;;;;;;;9.85;91.24;99902.84;4930291;28;20039;-76
2023/03/24 06:48:27;;;;;;;7.13;1.25;;;;;;;10.08;90.16;99895.06;4940848;28;20108;-75
2023/03/24 06:50:59;;;;;;;14.82;2.80;;;;;;;10.08;89.54;99899.44;4951712;28;20762;-77
2023/03/24 06:53:24;;;;;;;9.90;1.60;;;;;;;10.33;88.88;99900.84;4947855;28;20039;-77
2023/03/24 06:55:50;;;;;;;7.35;1.17;;;;;;;10.68;88.02;99911.53;4945409;28;20485;-77
2023/03/24 06:58:17;;;;;;;6.25;0.93;;;;;;;11.23;85.37;99919.84;4954247;28;20646;-76
2023/03/24 07:01:15;;;;;;;7.05;1.55;;;;;;;11.54;83.15;99915.38;4956718;28;20059;-77
2023/03/24 07:04:07;;;;;;;6.95;0.85;;;;;;;12.22;82.94;99918.44;4951957;28;20058;-77
2023/03/24 07:06:44;;;;;;;5.97;1.10;;;;;;;12.73;79.44;99907.78;4935442;28;20043;-77
2023/03/24 07:09:14;;;;;;;5.97;1.52;;;;;;;12.83;79.23;99908.25;4938461;28;20577;-76
2023/03/24 07:11:40;;;;;;;7.75;1.17;;;;;;;13.14;76.77;99906.19;4936981;28;20131;-76
2023/03/24 07:14:06;;;;;;;7.60;1.90;;;;;;;13.87;74.84;99909.00;4934386;28;20130;-77
2023/03/24 07:16:33;;;;;;;7.70;1.00;;;;;;;14.11;72.65;99902.41;4943104;28;20543;-77
2023/03/24 07:19:21;;;;;;;4.00;0.95;;;;;;;14.20;71.68;99903.81;4989372;28;20073;-77
2023/03/24 07:21:52;;;;;;;10.73;1.20;;;;;;;14.55;71.66;99915.81;4930489;28;20067;-77
2023/03/24 07:24:25;;;;;;;8.13;1.45;;;;;;;15.25;68.34;99918.63;4924916;28;20107;-78
2023/03/24 07:27:08;;;;;;;8.35;1.45;;;;;;;15.70;65.92;99923.81;4923476;28;20040;-78
2023/03/24 07:29:35;;;;;;;10.75;1.10;;;;;;;15.47;65.99;99945.25;4942850;28;20452;-77
2023/03/24 07:32:33;;;;;;;7.28;1.60;;;;;;;15.37;65.28;99929.25;4951318;28;20401;-78
2023/03/24 07:35:01;;;;;;;10.10;1.60;;;;;;;15.67;64.81;99911.19;4993637;28;20062;-78
2023/03/24 07:37:26;;;;;;;13.73;3.60;;;;;;;15.79;64.44;99915.78;4933286;28;20111;-77
2023/03/24 07:39:52;;;;;;;10.88;2.05;;;;;;;15.84;62.48;99919.34;4963086;28;20047;-78
2023/03/24 07:42:17;;;;;;;12.82;1.48;;;;;;;16.42;60.94;99913.03;4942048;28;20028;-76
2023/03/24 07:45:12;;;;;;;17.70;1.83;;;;;;;16.76;60.09;99923.97;4950085;28;20136;-77
2023/03/24 07:47:38;;;;;;;4.72;1.58;;;;;;;16.83;61.20;99929.97;4933556;28;20501;-77
2023/03/24 07:50:09;;;;;;;13.23;2.75;;;;;;;17.03;58.20;99936.81;4944744;28;20141;-77
2023/03/24 07:52:38;;;;;;;8.80;1.42;;;;;;;16.90;59.81;99935.16;5006572;28;20034;-77
2023/03/24 07:55:07;;;;;;;11.07;1.60;;;;;;;16.37;60.56;99939.06;4936190;28;20043;-77
2023/03/24 07:57:47;;;;;;;11.95;1.98;;;;;;;16.18;61.37;99946.06;4967779;28;20115;-79
2023/03/24 08:00:16;;;;;;;10.27;2.03;;;;;;;16.24;59.66;99941.78;5010412;28;20512;-77
2023/03/24 08:02:50;;;;;;;13.70;2.00;;;;;;;16.24;59.17;99949.63;4957852;28;20050;-78
2023/03/24 08:05:28;;;;;;;10.57;2.15;;;;;;;15.88;61.09;99949.28;4939084;28;20539;-78
2023/03/24 08:08:03;;;;;;;15.95;2.20;;;;;;;15.94;61.16;99965.94;4960497;28;20526;-78
2023/03/24 08:10:29;;;;;;;15.27;2.20;;;;;;;15.02;63.38;99963.50;4966685;28;20038;-77
2023/03/24 08:12:56;;;;;;;11.85;2.88;;;;;;;14.30;64.67;99965.19;4940564;28;20396;-78
2023/03/24 08:15:23;;;;;;;10.63;2.53;;;;;;;13.39;68.41;99968.97;4936437;28;20122;-78
2023/03/24 08:17:49;;;;;;;7.00;2.03;;;;;;;13.35;69.31;99978.97;4955804;28;20075;-77
2023/03/24 08:20:16;;;;;;;9.00;2.25;;;;;;;12.97;70.90;99979.38;4928163;28;20102;-76
2023/03/24 08:22:44;;;;;;;13.95;1.80;;;;;;;12.90;71.38;99981.13;4944556;28;20118;-77
2023/03/24 08:25:11;;;;;;;9.63;1.90;;;;;;;13.52;71.09;99973.44;4942476;28;20047;-77
2023/03/24 08:27:37;;;;;;;14.13;2.88;;;;;;;13.86;69.93;99988.16;4971096;28;20031;-76
2023/03/24 08:30:09;;;;;;;18.02;1.95;;;;;;;13.92;68.92;99979.59;4943640;28;20047;-77
2023/03/24 08:32:35;;;;;;;17.65;1.98;;;;;;;13.95;69.77;99975.75;4944490;28;20481;-77
2023/03/24 08:35:03;;;;;;;11.88;1.90;;;;;;;14.29;67.25;99968.78;4943352;28;20108;-77
2023/03/24 08:37:30;;;;;;;17.52;2.60;;;;;;;15.07;65.66;99975.94;4949878;28;20038;-77
2023/03/24 08:39:57;;;;;;;13.98;1.58;;;;;;;15.52;63.92;99978.56;4946674;28;20036;-77
2023/03/24 08:42:24;;;;;;;17.98;2.00;;;;;;;15.65;64.29;99975.94;4947274;28;20043;-77
2023/03/24 08:44:50;;;;;;;17.15;2.00;;;;;;;15.91;63.16;99982.03;4937003;28;20401;-78
2023/03/24 08:47:16;;;;;;;12.68;2.13;;;;;;;16.28;63.16;99977.75;4940444;28;20039;-77
2023/03/24 08:49:41;;;;;;;10.82;1.95;;;;;;;16.02;61.57;99983.97;4951401;28;20034;-77
2023/03/24 08:52:07;;;;;;;9.23;1.98;;;;;;;16.24;61.80;99981.03;4936545;28;20052;-77
2023/03/24 08:54:32;;;;;;;6.93;1.75;;;;;;;15.61;63.95;99974.72;4960644;28;20039;-76
2023/03/24 08:56:58;;;;;;;10.20;1.90;;;;;;;16.30;62.17;99977.53;4940671;28;20558;-76
2023/03/24 08:59:23;;;;;;;14.77;1.95;;;;;;;16.07;62.02;99989.38;4926731;28;20048;-77
2023/03/24 09:01:52;;;;;;;12.57;1.80;;;;;;;15.42;63.04;99991.28;4924406;28;20051;-77
2023/03/24 09:04:17;;;;;;;12.88;1.70;;;;;;;15.34;63.34;99987.91;4927046;28;20035;-77
2023/03/24 09:06:42;;;;;;;17.33;1.80;;;;;;;15.27;63.30;99999.38;5008384;28;20044;-78
2023/03/24 09:09:08;;;;;;;14.68;2.33;;;;;;;14.96;65.09;99988.63;4958474;28;20039;-77
2023/03/24 09:11:34;;;;;;;13.40;2.40;;;;;;;15.37;63.90;99997.16;4936302;28;21319;-79
2023/03/24 09:13:59;;;;;;;13.25;2.00;;;;;;;15.19;64.99;99992.59;4952057;28;20032;-76
2023/03/24 09:16:25;;;;;;;8.57;2.03;;;;;;;15.55;65.15;99991.25;4947983;28;20106;-78
2023/03/24 09:18:51;;;;;;;9.23;1.52;;;;;;;16.06;63.56;100000.03;4926780;28;20027;-77
2023/03/24 09:21:16;;;;;;;9.63;1.90;;;;;;;16.03;62.27;99998.66;4943017;28;21000;-76
2023/03/24 09:23:41;;;;;;;10.02;1.50;;;;;;;15.67;64.10;100002.66;4945898;28;20432;-77
2023/03/24 09:26:07;;;;;;;10.05;1.90;;;;;;;15.58;63.46;100012.53;4964346;28;20062;-77
2023/03/24 09:28:33;;;;;;;15.43;2.17;;;;;;;14.88;64.17;100017.56;5010412;28;20043;-76
2023/03/24 09:31:01;;;;;;;14.68;2.58;;;;;;;14.97;63.29;100010.31;4948937;28;20527;-78
2023/03/24 09:33:31;;;;;;;9.32;1.80;;;;;;;14.99;63.35;100023.94;4950670;28;20035;-77
2023/03/24 09:35:58;;;;;;;12.35;1.90;;;;;;;14.45;64.93;100025.78;4962621;28;20031;-77
2023/03/24 09:38:24;;;;;;;7.97;1.50;;;;;;;13.97;65.94;100033.72;4942494;28;20050;-76
2023/03/24 09:40:59;;;;;;;8.43;1.33;;;;;;;14.45;65.74;100030.16;4938331;28;20059;-77
2023/03/24 09:43:30;;;;;;;8.82;1.55;;;;;;;14.59;67.45;100019.56;4956930;28;20042;-76
2023/03/24 09:45:58;;;;;;;16.75;2.70;;;;;;;14.44;65.04;100026.75;4950116;28;20062;-76
2023/03/24 09:48:33;;;;;;;11.68;1.52;;;;;;;14.57;64.94;100026.00;4960124;28;20041;-77
2023/03/24 09:51:07;;;;;;;7.72;1.35;;;;;;;14.96;64.45;100019.94;4946699;28;20042;-77
2023/03/24 09:53:48;;;;;;;9.65;1.90;;;;;;;15.37;63.60;100026.69;4947254;28;20027;-76
2023/03/24 09:56:17;;;;;;;11.75;2.00;;;;;;;15.16;63.02;100024.31;4943243;28;20086;-76
2023/03/24 09:58:47;;;;;;;9.80;1.85;;;;;;;14.85;62.64;100023.16;4952739;28;20039;-75
2023/03/24 10:01:15;;;;;;;9.77;1.73;;;;;;;14.33;65.33;100048.22;4950203;28;20033;-77
2023/03/24 10:03:42;;;;;;;11.45;2.35;;;;;;;14.35;66.40;100056.63;4963188;28;20027;-77
2023/03/24 10:06:17;;;;;;;14.75;2.08;;;;;;;14.26;65.33;100057.81;4950921;28;20051;-77
2023/03/24 10:08:46;;;;;;;11.25;1.70;;;;;;;14.25;66.55;100059.63;5010756;28;20031;-77
2023/03/24 10:11:41;;;;;;;12.00;2.10;;;;;;;14.56;64.65;100051.25;4947002;28;20040;-77
2023/03/24 10:14:48;;;;;;;14.77;2.28;;;;;;;14.52;65.30;100070.94;4931355;28;21140;-77
2023/03/24 10:17:28;;;;;;;11.20;2.33;;;;;;;14.74;66.55;100075.97;4965401;28;20063;-77
2023/03/24 10:20:15;;;;;;;8.88;1.98;;;;;;;14.30;65.23;100051.25;4960678;28;20040;-78
2023/03/24 10:22:50;;;;;;;13.25;2.30;;;;;;;14.19;66.88;100065.66;4938650;28;20386;-77
2023/03/24 10:25:30;;;;;;;10.75;2.45;;;;;;;14.17;66.35;100073.66;4949804;28;20047;-77
2023/03/24 10:28:01;;;;;;;13.02;2.78;;;;;;;13.78;66.36;100069.13;4959672;28;20050;-77
2023/03/24 10:30:31;;;;;;;11.07;2.40;;;;;;;13.88;68.03;100068.75;4943365;28;20043;-77
2023/03/24 10:32:57;;;;;;;8.80;1.80;;;;;;;13.92;67.97;100068.19;4955823;28;20062;-76
2023/03/24 10:35:34;;;;;;;8.68;2.22;;;;;;;13.87;67.52;100073.19;4942993;28;20054;-76
2023/03/24 10:38:04;;;;;;;8.57;2.00;;;;;;;13.89;66.29;100072.97;4950504;28;20036;-76
2023/03/24 10:40:32;;;;;;;10.00;1.50;;;;;;;13.53;66.67;100076.63;5024686;28;20046;-75
2023/03/24 10:43:00;;;;;;;12.50;2.10;;;;;;;13.56;66.23;100079.66;4938868;28;20025;-76
2023/03/24 10:45:33;;;;;;;8.32;1.30;;;;;;;13.47;66.69;100088.63;4955293;28;20033;-77
2023/03/24 10:48:01;;;;;;;10.93;3.67;;;;;;;13.36;67.38;100094.38;4954613;28;20101;-75
2023/03/24 10:50:32;;;;;;;7.97;1.95;;;;;;;13.31;66.83;100084.50;4964343;28;20041;-77
2023/03/24 10:52:58;;;;;;;13.35;2.10;;;;;;;13.49;67.15;100086.63;4948668;28;20111;-78
2023/03/24 10:55:30;;;;;;;9.60;2.33;;;;;;;13.90;66.90;100078.00;4947398;28;20039;-76
2023/03/24 10:57:58;;;;;;;10.30;1.40;;;;;;;14.06;65.17;100071.63;4944132;28;20102;-76
2023/03/24 11:00:31;;;;;;;9.98;1.75;;;;;;;14.12;66.37;100076.06;4943101;28;20039;-78
2023/03/24 11:02:59;;;;;;;;;;;;;;;14.13;66.37;100063.84;4952365;28;20042;-77
2023/03/24 11:05:32;;;;;;;6.93;1.40;;;;;;;14.27;64.91;100069.88;4951783;28;19980;-77
2023/03/24 11:08:24;;;;;;;9.57;1.60;;;;;;;14.13;64.71;100054.22;4946366;28;20039;-76
2023/03/24 11:10:50;;;;;;;9.90;1.83;;;;;;;14.15;67.99;100065.25;4943437;28;20035;-76
2023/03/24 11:13:34;;;;;;;10.50;1.30;;;;;;;14.34;65.97;100057.66;4959930;28;20539;-77
2023/03/24 11:16:16;;;;;;;5.30;1.45;;;;;;;14.49;63.14;100057.47;4977013;28;20533;-76
2023/03/24 11:18:58;;;;;;;4.40;1.35;;;;;;;14.28;63.94;100074.06;4957004;28;20031;-74
2023/03/24 11:21:27;;;;;;;6.70;1.42;;;;;;;14.06;61.59;100060.41;4942479;28;20046;-76
2023/03/24 11:23:52;;;;;;;10.90;1.83;;;;;;;13.96;63.01;100071.22;4942138;28;20118;-77
2023/03/24 11:26:36;;;;;;;10.07;1.75;;;;;;;13.88;64.26;100073.97;4934289;28;20114;-76
2023/03/24 11:29:12;;;;;;;9.00;1.40;;;;;;;13.72;63.63;100075.91;4969159;28;20028;-75
2023/03/24 11:31:39;;;;;;;5.63;1.80;;;;;;;13.63;65.44;100083.09;4945198;28;20043;-77
2023/03/24 11:34:09;;;;;;;7.63;1.92;;;;;;;13.58;65.45;100090.69;4950497;28;20061;-76
2023/03/24 11:36:41;;;;;;;13.23;2.15;;;;;;;13.77;64.94;100088.38;4950821;28;20039;-74
2023/03/24 11:39:16;;;;;;;11.68;1.83;;;;;;;13.93;64.94;100077.59;4949596;28;20044;-76
2023/03/24 11:41:50;;;;;;;9.63;2.00;;;;;;;14.03;64.85;100072.00;4940242;28;20159;-76
2023/03/24 11:44:18;;;;;;;8.88;1.50;;;;;;;14.31;65.47;100074.50;4958571;28;20058;-77
2023/03/24 11:46:47;;;;;;;9.50;1.92;;;;;;;14.40;64.53;100078.50;4945750;28;20058;-77
2023/03/24 11:49:17;;;;;;;17.70;2.40;;;;;;;14.19;63.35;100084.69;4957466;28;20035;-78
2023/03/24 11:51:47;;;;;;;11.07;1.95;;;;;;;14.45;63.25;100075.31;4953897;28;20129;-77